Time;durP1;ratioP1;P1;durP2;ratioP2;P2;SDS_P1;SDS_P2;PMS_P1;PMS_P2;Temp;Humidity;BMP_temperature;BMP_pressure;BME280_temperature;BME280_humidity;BME280_pressure;Samples;Min_cycle;Max_cycle;Signal;HPM_P1;HPM_P2
2022/01/26 00:00:04;;;;;;;62.42;17.42;;;;;;;;;;5056341;28;20049;-74
2022/01/26 00:07:59;;;;;;;54.90;15.45;;;;;;;;;;5056280;28;20048;-75
2022/01/26 00:10:26;;;;;;;57.70;19.38;;;;;;;;;;5056221;28;20045;-75
2022/01/26 00:12:52;;;;;;;60.40;16.70;;;;;;;;;;5039886;28;20044;-74
2022/01/26 00:15:18;;;;;;;64.72;17.85;;;;;;;;;;5039794;28;20053;-75
2022/01/26 00:17:44;;;;;;;60.25;17.40;;;;;;;;;;5056106;28;20044;-74
2022/01/26 00:41:09;;;;;;;55.97;16.17;;;;;;;;;;5052611;28;20091;-74
2022/01/26 00:43:36;;;;;;;52.40;14.73;;;;;;;;;;5052616;28;20052;-74
2022/01/26 00:46:03;;;;;;;57.67;16.83;;;;;;;;;;5052852;28;20052;-74
2022/01/26 00:48:31;;;;;;;57.83;15.43;;;;;;;;;;5052643;28;20412;-74
2022/01/26 00:51:00;;;;;;;46.88;14.73;;;;;;;;;;5035692;28;20051;-75
2022/01/26 00:53:33;;;;;;;56.35;16.52;;;;;;;;;;5035876;28;20444;-73
2022/01/26 00:55:59;;;;;;;54.75;15.40;;;;;;;;;;5036068;28;20477;-74
2022/01/26 00:58:25;;;;;;;62.53;17.02;;;;;;;;;;5036061;28;20036;-74
2022/01/26 01:00:51;;;;;;;62.08;17.30;;;;;;;;;;5035969;28;20049;-73
2022/01/26 01:03:18;;;;;;;48.03;15.00;;;;;;;;;;5035575;28;20061;-74
2022/01/26 01:08:24;;;;;;;60.40;16.55;;;;;;;;;;5060182;28;20044;-75
2022/01/26 01:10:51;;;;;;;56.42;15.48;;;;;;;;;;5055426;28;20040;-74
2022/01/26 01:13:20;;;;;;;57.97;16.33;;;;;;;;;;5072320;28;20044;-74
2022/01/26 01:15:47;;;;;;;57.63;16.90;;;;;;;;;;5055656;28;20036;-75
2022/01/26 01:18:24;;;;;;;56.33;16.08;;;;;;;;;;5055476;28;20048;-75
2022/01/26 01:29:10;;;;;;;55.38;16.52;;;;;;;;;;5072087;28;20056;-74
2022/01/26 01:34:06;;;;;;;57.67;16.10;;;;;;;;;;5071762;28;20040;-74
2022/01/26 01:36:33;;;;;;;57.70;18.17;;;;;;;;;;5054975;28;20047;-73
2022/01/26 01:38:59;;;;;;;59.22;17.15;;;;;;;;;;5071727;28;20310;-74
2022/01/26 01:41:25;;;;;;;55.97;15.65;;;;;;;;;;5071839;28;20045;-75
2022/01/26 01:43:51;;;;;;;60.10;17.20;;;;;;;;;;5071664;28;20136;-74
2022/01/26 01:46:17;;;;;;;59.33;17.73;;;;;;;;;;5054996;28;20055;-73
2022/01/26 01:48:43;;;;;;;54.85;17.35;;;;;;;;;;5054743;28;20408;-74
2022/01/26 01:51:12;;;;;;;57.88;16.08;;;;;;;;;;5041478;28;20378;-74
2022/01/26 01:53:40;;;;;;;54.20;16.58;;;;;;;;;;5051225;28;20130;-75
2022/01/26 01:56:07;;;;;;;62.50;18.95;;;;;;;;;;5034592;28;20416;-75
2022/01/26 01:58:34;;;;;;;55.65;17.45;;;;;;;;;;5034621;28;20171;-75
2022/01/26 02:01:00;;;;;;;63.83;17.10;;;;;;;;;;5051204;28;20076;-75
2022/01/26 02:03:26;;;;;;;59.35;17.80;;;;;;;;;;5034294;28;20049;-75
2022/01/26 02:05:52;;;;;;;60.17;17.55;;;;;;;;;;5050902;28;20067;-74
2022/01/26 02:08:19;;;;;;;64.90;20.10;;;;;;;;;;5050808;28;20055;-75
2022/01/26 02:10:45;;;;;;;63.33;17.83;;;;;;;;;;5051026;28;20094;-73
2022/01/26 02:13:23;;;;;;;63.60;20.92;;;;;;;;;;5051079;28;20037;-73
2022/01/26 02:51:20;;;;;;;63.33;17.90;;;;;;;;;;5069903;28;20045;-72
2022/01/26 02:56:22;;;;;;;66.82;18.02;;;;;;;;;;5070470;28;20206;-74
2022/01/26 03:06:50;;;;;;;64.13;16.60;;;;;;;;;;5070131;28;20040;-74
2022/01/26 03:09:22;;;;;;;57.85;17.15;;;;;;;;;;5070081;28;20070;-73
2022/01/26 03:11:49;;;;;;;59.75;17.02;;;;;;;;;;5070230;28;20045;-72
2022/01/26 03:14:31;;;;;;;58.72;16.67;;;;;;;;;;5070349;28;20504;-73
2022/01/26 03:17:04;;;;;;;60.15;15.98;;;;;;;;;;5069700;28;20053;-73
2022/01/26 03:19:38;;;;;;;59.70;17.23;;;;;;;;;;5070306;28;20045;-74
2022/01/26 03:31:05;;;;;;;59.90;16.35;;;;;;;;;;5049921;28;20127;-74
2022/01/26 03:33:10;;;;;;;63.45;18.30;;;;;;;;;;5046615;28;20045;-74
2022/01/26 03:38:20;;;;;;;60.35;16.75;;;;;;;;;;5069806;28;20413;-74
2022/01/26 03:40:47;;;;;;;63.90;17.40;;;;;;;;;;5053285;28;20102;-74
2022/01/26 03:43:13;;;;;;;67.07;17.90;;;;;;;;;;5053355;28;20140;-75
2022/01/26 03:45:39;;;;;;;61.70;16.73;;;;;;;;;;5069808;28;20135;-74
2022/01/26 03:48:05;;;;;;;67.55;17.05;;;;;;;;;;5053389;28;20485;-73
2022/01/26 03:50:31;;;;;;;52.97;15.10;;;;;;;;;;5069948;28;20086;-74
2022/01/26 03:52:57;;;;;;;62.80;17.13;;;;;;;;;;5069927;28;20040;-74
2022/01/26 03:55:23;;;;;;;64.07;17.58;;;;;;;;;;5052984;28;20039;-75
2022/01/26 03:57:49;;;;;;;63.03;18.95;;;;;;;;;;5052809;28;20056;-74
2022/01/26 04:00:17;;;;;;;66.80;15.77;;;;;;;;;;5069975;28;20040;-74
2022/01/26 04:02:43;;;;;;;70.93;18.20;;;;;;;;;;5072251;28;20128;-73
2022/01/26 04:05:11;;;;;;;63.88;17.83;;;;;;;;;;5073189;28;20411;-75
2022/01/26 04:07:37;;;;;;;67.80;20.10;;;;;;;;;;5056488;28;20395;-73
2022/01/26 04:10:14;;;;;;;65.13;18.80;;;;;;;;;;5073257;28;20098;-74
2022/01/26 04:12:40;;;;;;;71.65;17.75;;;;;;;;;;5073415;28;20103;-75
2022/01/26 04:15:16;;;;;;;66.68;18.52;;;;;;;;;;5073194;28;20488;-74
2022/01/26 04:17:42;;;;;;;63.67;17.23;;;;;;;;;;5073189;28;20158;-75
2022/01/26 04:20:08;;;;;;;66.80;18.25;;;;;;;;;;5073443;28;20052;-75
2022/01/26 04:22:48;;;;;;;56.55;17.13;;;;;;;;;;5056645;28;20098;-73
2022/01/26 04:25:19;;;;;;;60.25;17.38;;;;;;;;;;5073458;28;20048;-75
2022/01/26 04:27:49;;;;;;;64.32;17.00;;;;;;;;;;5056408;28;20047;-74
2022/01/26 04:30:15;;;;;;;67.28;17.58;;;;;;;;;;5072852;28;20052;-74
2022/01/26 04:32:41;;;;;;;62.05;18.17;;;;;;;;;;5072980;28;20041;-74
2022/01/26 04:35:09;;;;;;;67.10;19.60;;;;;;;;;;5073174;28;20101;-74
2022/01/26 04:40:06;;;;;;;56.00;15.02;;;;;;;;;;5072975;28;20071;-75
2022/01/26 04:45:06;;;;;;;67.93;17.77;;;;;;;;;;5072529;28;20509;-74
2022/01/26 04:47:33;;;;;;;59.38;17.05;;;;;;;;;;5072712;28;20484;-74
2022/01/26 04:49:59;;;;;;;67.95;17.88;;;;;;;;;;5072562;28;20044;-75
2022/01/26 04:52:25;;;;;;;64.68;16.65;;;;;;;;;;5055876;28;20045;-75
2022/01/26 04:54:51;;;;;;;68.30;16.75;;;;;;;;;;5056092;28;20045;-74
2022/01/26 04:57:18;;;;;;;70.07;18.50;;;;;;;;;;5072675;28;20131;-75
2022/01/26 04:59:44;;;;;;;57.00;16.63;;;;;;;;;;5072897;28;20102;-74
2022/01/26 05:02:10;;;;;;;57.13;15.80;;;;;;;;;;5055394;28;20044;-75
2022/01/26 05:04:36;;;;;;;61.70;14.75;;;;;;;;;;5055605;28;20040;-74
2022/01/26 05:07:03;;;;;;;54.40;16.38;;;;;;;;;;5072390;28;20048;-74
2022/01/26 05:09:29;;;;;;;67.70;16.60;;;;;;;;;;5072316;28;20095;-74
2022/01/26 05:11:56;;;;;;;50.13;14.55;;;;;;;;;;5071721;28;20051;-74
2022/01/26 05:14:22;;;;;;;65.75;18.75;;;;;;;;;;5072369;28;20124;-74
2022/01/26 05:16:48;;;;;;;64.63;16.63;;;;;;;;;;5055910;28;20561;-74
2022/01/26 05:19:14;;;;;;;59.90;17.17;;;;;;;;;;5072307;28;20504;-74
2022/01/26 05:21:41;;;;;;;56.92;16.27;;;;;;;;;;5071888;28;20105;-74
2022/01/26 05:24:07;;;;;;;57.60;17.17;;;;;;;;;;5055406;28;20132;-73
2022/01/26 05:26:33;;;;;;;60.30;17.92;;;;;;;;;;5055715;28;20048;-73
2022/01/26 05:28:59;;;;;;;58.85;14.73;;;;;;;;;;5071820;28;20044;-74
2022/01/26 05:31:25;;;;;;;53.78;15.18;;;;;;;;;;5071890;28;20048;-75
2022/01/26 05:33:53;;;;;;;59.40;17.05;;;;;;;;;;5054963;28;20036;-74
2022/01/26 05:36:19;;;;;;;62.03;17.35;;;;;;;;;;5071811;28;20106;-74
2022/01/26 05:38:45;;;;;;;69.20;17.00;;;;;;;;;;5054955;28;20032;-74
2022/01/26 05:41:12;;;;;;;59.85;17.73;;;;;;;;;;5071457;28;20450;-72
2022/01/26 05:43:38;;;;;;;59.30;17.75;;;;;;;;;;5071355;28;20181;-74
2022/01/26 05:46:12;;;;;;;67.82;18.67;;;;;;;;;;5071597;28;20080;-74
2022/01/26 05:48:43;;;;;;;66.78;17.60;;;;;;;;;;5071729;28;20053;-74
2022/01/26 05:51:10;;;;;;;56.88;15.65;;;;;;;;;;5071321;28;20505;-74
2022/01/26 05:53:37;;;;;;;63.80;17.38;;;;;;;;;;5071417;28;20452;-74
2022/01/26 05:56:03;;;;;;;57.60;15.70;;;;;;;;;;5071256;28;20400;-74
2022/01/26 05:58:30;;;;;;;62.97;18.02;;;;;;;;;;5071194;28;20040;-74
2022/01/26 06:01:00;;;;;;;59.38;16.60;;;;;;;;;;5054604;28;20076;-74
2022/01/26 06:03:26;;;;;;;57.47;16.70;;;;;;;;;;5070923;28;20139;-74
2022/01/26 06:05:54;;;;;;;53.92;15.30;;;;;;;;;;5070941;28;20454;-74
2022/01/26 06:08:20;;;;;;;52.40;15.20;;;;;;;;;;5070853;28;20036;-75
2022/01/26 06:10:46;;;;;;;53.10;14.38;;;;;;;;;;5054404;28;20044;-74
2022/01/26 06:13:12;;;;;;;62.72;15.95;;;;;;;;;;5070942;28;20039;-74
2022/01/26 06:15:38;;;;;;;66.57;17.33;;;;;;;;;;5070926;28;20072;-74
2022/01/26 06:18:04;;;;;;;54.08;15.45;;;;;;;;;;5071004;28;20106;-74
2022/01/26 06:20:30;;;;;;;60.63;17.35;;;;;;;;;;5070825;28;20058;-74
2022/01/26 06:22:56;;;;;;;59.55;16.52;;;;;;;;;;5070905;28;20040;-74
2022/01/26 06:25:22;;;;;;;64.97;16.55;;;;;;;;;;5053476;28;20076;-73
2022/01/26 06:27:51;;;;;;;69.25;19.65;;;;;;;;;;5053963;28;20044;-73
2022/01/26 06:30:17;;;;;;;62.63;16.33;;;;;;;;;;5054481;28;20080;-74
2022/01/26 06:32:43;;;;;;;68.88;17.48;;;;;;;;;;5070650;28;20036;-74
2022/01/26 06:35:09;;;;;;;48.63;14.23;;;;;;;;;;5070782;28;20545;-73
2022/01/26 06:37:36;;;;;;;60.15;17.02;;;;;;;;;;5054160;28;20119;-75
2022/01/26 06:40:02;;;;;;;65.25;17.73;;;;;;;;;;5070747;28;20477;-73
2022/01/26 06:42:34;;;;;;;57.50;16.67;;;;;;;;;;5070359;28;20087;-74
2022/01/26 06:49:52;;;;;;;55.65;15.10;;;;;;;;;;5071252;28;20141;-74
2022/01/26 06:52:18;;;;;;;59.30;16.50;;;;;;;;;;5054311;28;20048;-72
2022/01/26 06:54:44;;;;;;;54.17;15.18;;;;;;;;;;5070594;28;20047;-72
2022/01/26 06:57:10;;;;;;;57.65;15.57;;;;;;;;;;5070307;28;20035;-73
2022/01/26 06:59:36;;;;;;;58.28;16.92;;;;;;;;;;5070157;28;20427;-74
2022/01/26 07:02:02;;;;;;;59.25;17.00;;;;;;;;;;5053140;28;20037;-72
2022/01/26 07:04:28;;;;;;;55.05;16.50;;;;;;;;;;5054208;28;20083;-74
2022/01/26 07:06:54;;;;;;;55.88;14.52;;;;;;;;;;5053878;28;20086;-74
2022/01/26 07:09:20;;;;;;;61.28;16.63;;;;;;;;;;5071240;28;20480;-73
2022/01/26 07:11:46;;;;;;;53.30;17.17;;;;;;;;;;5070842;28;20037;-73
2022/01/26 07:14:22;;;;;;;65.50;17.33;;;;;;;;;;5070603;28;20392;-74
2022/01/26 07:22:17;;;;;;;56.05;16.50;;;;;;;;;;5070078;28;20055;-75
2022/01/26 07:24:43;;;;;;;49.05;15.32;;;;;;;;;;5070074;28;20083;-74
2022/01/26 07:27:10;;;;;;;56.63;15.93;;;;;;;;;;5069917;28;20858;-74
2022/01/26 07:29:36;;;;;;;52.05;14.68;;;;;;;;;;5070047;28;20055;-75
2022/01/26 07:32:05;;;;;;;53.78;16.15;;;;;;;;;;5069615;28;20036;-73
2022/01/26 07:34:31;;;;;;;52.40;14.63;;;;;;;;;;5053315;28;20397;-74
2022/01/26 07:37:02;;;;;;;51.28;15.80;;;;;;;;;;5056787;28;20439;-74
2022/01/26 07:39:49;;;;;;;;;;;;;;;;;;5074600;28;20045;-72
2022/01/26 07:42:15;;;;;;;56.13;16.35;;;;;;;;;;5057520;28;19927;-72
2022/01/26 07:44:41;;;;;;;61.47;16.33;;;;;;;;;;5074007;28;20090;-73
2022/01/26 07:47:07;;;;;;;47.08;15.05;;;;;;;;;;5057012;28;20483;-73
2022/01/26 07:49:33;;;;;;;59.28;16.10;;;;;;;;;;5056936;28;20075;-72
2022/01/26 07:51:59;;;;;;;50.22;16.80;;;;;;;;;;5073836;28;20569;-74
2022/01/26 07:54:25;;;;;;;57.20;17.25;;;;;;;;;;5073566;28;20043;-73
2022/01/26 07:56:51;;;;;;;56.13;17.15;;;;;;;;;;5073516;28;20036;-74
2022/01/26 07:59:17;;;;;;;61.70;16.13;;;;;;;;;;5073670;28;20048;-74
2022/01/26 08:01:43;;;;;;;58.78;17.70;;;;;;;;;;5073669;28;20396;-74
2022/01/26 08:04:09;;;;;;;60.83;17.63;;;;;;;;;;5056545;28;20107;-74
2022/01/26 08:06:35;;;;;;;64.57;17.88;;;;;;;;;;5056947;28;20139;-74
2022/01/26 08:09:01;;;;;;;57.35;16.20;;;;;;;;;;5073404;28;20075;-74
2022/01/26 08:11:27;;;;;;;63.85;19.83;;;;;;;;;;5073040;28;20040;-73
2022/01/26 08:13:53;;;;;;;63.95;19.48;;;;;;;;;;5060416;28;20440;-74
2022/01/26 08:16:20;;;;;;;63.10;18.10;;;;;;;;;;5053468;28;20037;-73
2022/01/26 08:18:46;;;;;;;67.10;19.48;;;;;;;;;;5053329;28;20115;-74
2022/01/26 08:21:12;;;;;;;61.60;19.25;;;;;;;;;;5043705;28;20033;-73
2022/01/26 08:23:42;;;;;;;66.72;19.98;;;;;;;;;;5061798;28;20095;-74
2022/01/26 08:26:09;;;;;;;67.95;20.73;;;;;;;;;;5062602;28;20076;-74
2022/01/26 08:28:39;;;;;;;67.95;20.10;;;;;;;;;;5063379;28;20033;-74
2022/01/26 08:31:05;;;;;;;65.10;18.40;;;;;;;;;;5045662;28;20501;-74
2022/01/26 08:33:31;;;;;;;67.15;20.17;;;;;;;;;;5062303;28;20040;-74
2022/01/26 08:35:57;;;;;;;64.28;19.20;;;;;;;;;;5046878;28;20043;-74
2022/01/26 08:38:23;;;;;;;58.00;17.48;;;;;;;;;;5061584;28;20037;-74
2022/01/26 08:40:50;;;;;;;69.88;20.30;;;;;;;;;;5062546;28;20485;-74
2022/01/26 08:43:16;;;;;;;64.13;22.52;;;;;;;;;;5063224;28;20044;-74
2022/01/26 08:45:42;;;;;;;70.43;21.85;;;;;;;;;;5061278;28;20040;-74
2022/01/26 08:48:08;;;;;;;72.13;22.13;;;;;;;;;;5061450;28;20047;-74
2022/01/26 08:50:35;;;;;;;80.25;21.25;;;;;;;;;;5062861;28;20040;-73
2022/01/26 08:53:01;;;;;;;67.03;20.30;;;;;;;;;;5061033;28;20044;-74
2022/01/26 08:55:27;;;;;;;77.07;20.85;;;;;;;;;;5062719;28;20094;-75
2022/01/26 08:57:53;;;;;;;73.15;20.33;;;;;;;;;;5062937;28;20550;-73
2022/01/26 09:00:19;;;;;;;76.22;23.63;;;;;;;;;;5060630;28;20033;-75
2022/01/26 09:02:47;;;;;;;77.70;21.60;;;;;;;;;;5062884;28;20052;-75
2022/01/26 09:05:13;;;;;;;71.22;21.92;;;;;;;;;;5045750;28;20123;-75
2022/01/26 09:07:43;;;;;;;84.60;22.77;;;;;;;;;;5044439;28;20033;-74
2022/01/26 09:10:09;;;;;;;84.15;23.52;;;;;;;;;;5061841;28;20036;-74
2022/01/26 09:12:40;;;;;;;84.78;26.00;;;;;;;;;;5062696;28;20405;-74
2022/01/26 09:15:06;;;;;;;75.05;23.73;;;;;;;;;;5044777;28;20033;-74
2022/01/26 09:17:34;;;;;;;74.43;23.83;;;;;;;;;;5061085;28;20041;-74
2022/01/26 09:20:02;;;;;;;78.60;23.85;;;;;;;;;;5062760;28;20683;-75
2022/01/26 09:22:28;;;;;;;83.90;23.83;;;;;;;;;;5044852;28;20041;-74
2022/01/26 09:24:54;;;;;;;82.25;25.58;;;;;;;;;;5060816;28;20105;-75
2022/01/26 09:27:20;;;;;;;88.40;26.48;;;;;;;;;;5062537;28;20044;-75
2022/01/26 09:29:46;;;;;;;79.40;23.58;;;;;;;;;;5044592;28;20036;-75
2022/01/26 09:32:14;;;;;;;85.15;25.23;;;;;;;;;;5060725;28;20044;-75
2022/01/26 09:34:40;;;;;;;84.22;24.88;;;;;;;;;;5051997;28;20174;-75
2022/01/26 09:37:07;;;;;;;92.35;26.75;;;;;;;;;;5055155;28;20094;-74
2022/01/26 09:39:33;;;;;;;84.05;25.20;;;;;;;;;;5071636;28;20128;-74
2022/01/26 09:42:00;;;;;;;86.28;24.48;;;;;;;;;;5071825;28;20040;-74
2022/01/26 09:44:26;;;;;;;84.20;26.05;;;;;;;;;;5071401;28;20044;-75
2022/01/26 09:46:52;;;;;;;92.47;26.00;;;;;;;;;;5071474;28;20051;-75
2022/01/26 09:49:19;;;;;;;74.20;22.17;;;;;;;;;;5071482;28;20041;-75
2022/01/26 09:51:48;;;;;;;87.57;25.83;;;;;;;;;;5054795;28;20047;-74
2022/01/26 09:54:16;;;;;;;77.38;25.20;;;;;;;;;;5054920;28;20085;-75
2022/01/26 09:56:43;;;;;;;87.85;25.88;;;;;;;;;;5071695;28;20093;-74
2022/01/26 09:59:09;;;;;;;84.32;24.90;;;;;;;;;;5071240;28;20147;-73
2022/01/26 10:01:42;;;;;;;90.82;27.00;;;;;;;;;;5054654;28;20048;-74
2022/01/26 10:04:18;;;;;;;86.07;28.13;;;;;;;;;;5068636;28;20409;-75
2022/01/26 10:06:44;;;;;;;86.78;26.10;;;;;;;;;;5060380;28;20052;-74
2022/01/26 10:09:43;;;;;;;98.75;28.13;;;;;;;;;;5043565;28;20032;-74
2022/01/26 10:17:41;;;;;;;85.07;25.80;;;;;;;;;;5059709;28;20044;-74
2022/01/26 10:20:09;;;;;;;87.03;25.42;;;;;;;;;;5043589;28;20392;-74
2022/01/26 10:22:36;;;;;;;88.63;27.10;;;;;;;;;;5045056;28;20036;-73
2022/01/26 10:25:09;;;;;;;83.22;27.27;;;;;;;;;;5060025;28;20041;-74
2022/01/26 10:27:39;;;;;;;89.32;26.42;;;;;;;;;;5059220;28;20095;-74
2022/01/26 10:30:06;;;;;;;80.82;23.85;;;;;;;;;;5062347;28;20109;-75
2022/01/26 10:32:35;;;;;;;88.03;26.80;;;;;;;;;;5059621;28;20103;-74
2022/01/26 10:35:02;;;;;;;88.18;27.23;;;;;;;;;;5044700;28;20033;-75
2022/01/26 10:37:28;;;;;;;85.55;25.33;;;;;;;;;;5043941;28;20121;-74
2022/01/26 10:39:58;;;;;;;88.55;26.98;;;;;;;;;;5059182;28;20044;-75
2022/01/26 10:42:25;;;;;;;90.82;28.35;;;;;;;;;;5043480;28;20041;-75
2022/01/26 10:47:31;;;;;;;81.68;27.98;;;;;;;;;;5058973;28;20076;-74
2022/01/26 10:52:42;;;;;;;81.28;25.48;;;;;;;;;;5059451;28;20049;-74
2022/01/26 10:55:09;;;;;;;81.80;24.80;;;;;;;;;;5060107;28;20039;-74
2022/01/26 10:57:36;;;;;;;84.80;25.10;;;;;;;;;;5061052;28;20032;-73
2022/01/26 11:00:06;;;;;;;80.60;23.75;;;;;;;;;;5059967;28;20051;-74
2022/01/26 11:02:34;;;;;;;89.20;25.20;;;;;;;;;;5042340;28;20125;-74
2022/01/26 11:05:00;;;;;;;76.28;24.55;;;;;;;;;;5060671;28;20386;-74
2022/01/26 11:07:31;;;;;;;84.28;25.45;;;;;;;;;;5060188;28;20047;-75
2022/01/26 11:10:00;;;;;;;73.47;24.83;;;;;;;;;;5041633;28;20033;-74
2022/01/26 11:12:27;;;;;;;76.35;26.73;;;;;;;;;;5059591;28;20025;-74
2022/01/26 11:14:58;;;;;;;72.43;21.83;;;;;;;;;;5060720;28;20059;-74
2022/01/26 11:17:25;;;;;;;75.25;23.52;;;;;;;;;;5059627;28;20036;-75
2022/01/26 11:19:51;;;;;;;67.40;23.42;;;;;;;;;;5059185;28;20511;-74
2022/01/26 11:22:25;;;;;;;81.78;24.33;;;;;;;;;;5065951;28;20044;-74
2022/01/26 11:24:51;;;;;;;80.50;23.88;;;;;;;;;;5070063;28;20041;-75
2022/01/26 11:27:17;;;;;;;74.95;21.98;;;;;;;;;;5069930;28;20511;-74
2022/01/26 11:29:47;;;;;;;73.15;23.92;;;;;;;;;;5070070;28;20048;-73
2022/01/26 11:32:23;;;;;;;79.68;23.67;;;;;;;;;;5046797;28;20045;-74
2022/01/26 11:34:50;;;;;;;76.85;24.38;;;;;;;;;;5050197;28;20493;-74
2022/01/26 11:37:19;;;;;;;79.95;25.25;;;;;;;;;;5049773;28;20040;-75
2022/01/26 11:45:26;;;;;;;68.93;24.00;;;;;;;;;;5049853;28;20045;-74
2022/01/26 11:47:58;;;;;;;80.75;20.83;;;;;;;;;;5033583;28;20109;-75
2022/01/26 11:50:25;;;;;;;77.47;20.40;;;;;;;;;;5049926;28;20064;-74
2022/01/26 11:52:59;;;;;;;69.78;22.65;;;;;;;;;;5050118;28;20029;-74
2022/01/26 11:55:31;;;;;;;68.03;23.05;;;;;;;;;;5049763;28;20037;-73
2022/01/26 11:58:12;;;;;;;72.22;21.23;;;;;;;;;;5049694;28;20041;-74
2022/01/26 12:00:53;;;;;;;68.35;19.95;;;;;;;;;;5049534;28;20049;-74
2022/01/26 12:03:23;;;;;;;67.55;20.58;;;;;;;;;;5049564;28;20405;-73
2022/01/26 12:05:51;;;;;;;68.33;20.60;;;;;;;;;;5049779;28;20425;-74
2022/01/26 12:08:26;;;;;;;82.43;24.60;;;;;;;;;;5049576;28;20635;-75
2022/01/26 12:10:52;;;;;;;67.13;19.75;;;;;;;;;;5049951;28;20048;-72
2022/01/26 12:13:21;;;;;;;81.30;21.95;;;;;;;;;;5049517;28;20033;-73
2022/01/26 12:15:55;;;;;;;74.90;20.70;;;;;;;;;;5049585;28;20516;-74
2022/01/26 12:18:30;;;;;;;71.82;21.02;;;;;;;;;;5049827;28;20045;-74
2022/01/26 12:32:02;;;;;;;66.20;20.08;;;;;;;;;;5052948;28;20131;-74
2022/01/26 12:37:12;;;;;;;70.88;20.65;;;;;;;;;;5053205;28;20052;-75
2022/01/26 12:42:56;;;;;;;57.55;18.35;;;;;;;;;;5052847;28;20045;-74
2022/01/26 12:45:26;;;;;;;59.88;20.17;;;;;;;;;;5053083;28;20053;-74
2022/01/26 12:47:53;;;;;;;72.95;18.60;;;;;;;;;;5036392;28;20045;-74
2022/01/26 12:50:20;;;;;;;65.10;18.55;;;;;;;;;;5036270;28;20375;-74
2022/01/26 12:52:50;;;;;;;63.33;19.73;;;;;;;;;;5035760;28;20045;-74
2022/01/26 12:55:23;;;;;;;57.20;17.48;;;;;;;;;;5036096;28;20041;-73
2022/01/26 12:57:49;;;;;;;60.85;19.00;;;;;;;;;;5061042;28;20068;-74
2022/01/26 13:00:15;;;;;;;62.03;20.77;;;;;;;;;;5055986;28;20064;-74
2022/01/26 13:02:41;;;;;;;60.20;19.55;;;;;;;;;;5051343;28;20168;-74
2022/01/26 13:05:08;;;;;;;56.30;18.83;;;;;;;;;;5052331;28;20045;-74
2022/01/26 13:07:34;;;;;;;68.38;20.42;;;;;;;;;;5052511;28;20090;-71
2022/01/26 13:10:00;;;;;;;63.10;19.42;;;;;;;;;;5052449;28;20041;-73
2022/01/26 13:12:33;;;;;;;59.40;16.92;;;;;;;;;;5054568;28;20401;-74
2022/01/26 13:15:18;;;;;;;63.38;18.17;;;;;;;;;;5060271;28;20037;-72
2022/01/26 13:17:54;;;;;;;72.65;19.92;;;;;;;;;;5052376;28;20481;-73
2022/01/26 13:23:33;;;;;;;62.88;19.05;;;;;;;;;;5043235;28;20068;-72
2022/01/26 13:28:44;;;;;;;73.57;22.92;;;;;;;;;;5052954;28;20441;-74
2022/01/26 13:31:33;;;;;;;;;;;;;;;;;;5036774;28;20044;-74
2022/01/26 13:37:29;;;;;;;72.50;20.05;;;;;;;;;;5052958;28;20040;-74
2022/01/26 13:53:16;;;;;;;68.97;21.33;;;;;;;;;;5051324;28;20128;-74
2022/01/26 14:01:19;;;;;;;60.33;20.85;;;;;;;;;;5042527;28;20055;-73
2022/01/26 14:03:48;;;;;;;60.25;17.85;;;;;;;;;;5051090;28;20053;-75
2022/01/26 14:06:14;;;;;;;74.28;20.80;;;;;;;;;;5034639;28;20409;-75
2022/01/26 14:08:41;;;;;;;63.92;19.85;;;;;;;;;;5034464;28;20041;-74
2022/01/26 14:11:07;;;;;;;59.33;17.48;;;;;;;;;;5034372;28;20048;-74
2022/01/26 14:13:35;;;;;;;66.38;20.13;;;;;;;;;;5051213;28;20045;-74
2022/01/26 14:16:01;;;;;;;60.13;18.33;;;;;;;;;;5034376;28;20122;-73
2022/01/26 14:18:43;;;;;;;67.20;20.60;;;;;;;;;;5050889;28;20095;-74
2022/01/26 14:21:30;;;;;;;55.22;17.83;;;;;;;;;;5034368;28;20075;-74
2022/01/26 14:24:10;;;;;;;56.97;18.30;;;;;;;;;;5051502;28;20132;-73
2022/01/26 14:26:38;;;;;;;53.50;17.30;;;;;;;;;;5050510;28;20052;-73
2022/01/26 14:29:13;;;;;;;58.92;17.02;;;;;;;;;;5050893;28;20045;-74
2022/01/26 14:31:59;;;;;;;57.10;18.52;;;;;;;;;;5051007;28;20177;-74
2022/01/26 14:56:01;;;;;;;52.40;17.70;;;;;;;;;;5071062;28;20358;-74
2022/01/26 15:08:43;;;;;;;52.08;16.77;;;;;;;;;;5070949;28;20048;-75
2022/01/26 15:34:46;;;;;;;53.60;15.43;;;;;;;;;;5050095;28;20080;-74
2022/01/26 15:40:24;;;;;;;45.33;16.27;;;;;;;;;;5026763;28;20048;-74
2022/01/26 15:50:52;;;;;;;45.92;15.13;;;;;;;;;;5049357;28;20045;-74
2022/01/26 15:59:18;;;;;;;52.30;16.40;;;;;;;;;;5053105;28;20041;-74
2022/01/26 16:04:55;;;;;;;50.70;16.48;;;;;;;;;;5053754;28;20117;-74
2022/01/26 16:07:24;;;;;;;49.60;16.75;;;;;;;;;;5053669;28;20045;-73
2022/01/26 16:19:19;;;;;;;53.70;15.52;;;;;;;;;;5053686;28;20048;-74
2022/01/26 16:44:18;;;;;;;51.80;17.90;;;;;;;;;;5049975;28;20098;-74
2022/01/26 16:53:41;;;;;;;48.47;16.95;;;;;;;;;;5049139;28;20085;-76
2022/01/26 18:49:19;;;;;;;42.50;15.48;;;;;;;;;;5047155;28;20083;-74
2022/01/26 18:51:48;;;;;;;45.08;16.10;;;;;;;;;;5030101;28;20501;-74
2022/01/26 18:54:15;;;;;;;40.47;15.38;;;;;;;;;;5030277;28;20076;-77
2022/01/26 18:56:41;;;;;;;46.47;13.90;;;;;;;;;;5046890;28;20079;-74
2022/01/26 18:59:08;;;;;;;36.35;13.52;;;;;;;;;;5047057;28;20044;-74
2022/01/26 19:01:35;;;;;;;41.00;14.35;;;;;;;;;;5046937;28;20088;-75
2022/01/26 19:04:01;;;;;;;42.03;14.07;;;;;;;;;;5029801;28;20513;-74
2022/01/26 19:06:27;;;;;;;45.85;14.20;;;;;;;;;;5046737;28;20095;-75
2022/01/26 19:08:53;;;;;;;40.97;13.27;;;;;;;;;;5046560;28;20110;-75
2022/01/26 19:11:21;;;;;;;39.80;14.27;;;;;;;;;;5029746;28;20041;-71
2022/01/26 19:13:49;;;;;;;44.75;14.27;;;;;;;;;;5030279;28;20052;-75
2022/01/26 19:19:02;;;;;;;42.70;15.70;;;;;;;;;;5046740;28;20417;-75
2022/01/26 19:21:51;;;;;;;46.55;14.15;;;;;;;;;;5030128;28;20080;-75
2022/01/26 19:26:53;;;;;;;37.75;13.90;;;;;;;;;;5046095;28;20044;-75
2022/01/26 19:32:46;;;;;;;37.40;13.20;;;;;;;;;;5025378;28;20140;-74
2022/01/26 19:41:48;;;;;;;39.50;12.88;;;;;;;;;;5051001;28;20052;-75
2022/01/26 19:51:25;;;;;;;36.22;12.85;;;;;;;;;;5049619;28;20045;-75
2022/01/26 19:53:51;;;;;;;35.97;13.20;;;;;;;;;;5050123;28;20033;-74
2022/01/26 19:56:17;;;;;;;37.47;11.80;;;;;;;;;;5033379;28;20036;-75
2022/01/26 19:58:43;;;;;;;34.45;12.85;;;;;;;;;;5033482;28;20044;-75
2022/01/26 20:01:09;;;;;;;36.40;13.10;;;;;;;;;;5033746;28;20075;-73
2022/01/26 20:03:35;;;;;;;37.25;13.23;;;;;;;;;;5049924;28;20473;-74
2022/01/26 20:06:05;;;;;;;38.38;13.35;;;;;;;;;;5049559;28;20052;-75
2022/01/26 20:11:01;;;;;;;39.28;12.98;;;;;;;;;;5050104;28;20056;-75
2022/01/26 20:13:34;;;;;;;32.63;12.98;;;;;;;;;;5049775;28;20401;-75
2022/01/26 20:16:01;;;;;;;39.92;12.50;;;;;;;;;;5033215;28;20051;-76
2022/01/26 20:18:27;;;;;;;39.13;13.48;;;;;;;;;;5032994;28;20434;-75
2022/01/26 20:20:58;;;;;;;38.40;13.93;;;;;;;;;;5033093;28;20364;-73
2022/01/26 20:23:27;;;;;;;43.42;12.80;;;;;;;;;;5049971;28;20051;-73
2022/01/26 20:25:58;;;;;;;37.47;12.25;;;;;;;;;;5049529;28;20106;-74
2022/01/26 20:28:25;;;;;;;41.92;14.95;;;;;;;;;;5049664;28;20049;-74
2022/01/26 20:30:52;;;;;;;36.83;13.32;;;;;;;;;;5049264;28;20483;-75
2022/01/26 20:33:18;;;;;;;39.22;13.35;;;;;;;;;;5049833;28;20079;-74
2022/01/26 20:35:44;;;;;;;44.38;13.60;;;;;;;;;;5049781;28;20072;-76
2022/01/26 20:38:10;;;;;;;43.50;13.75;;;;;;;;;;5032579;28;20072;-75
2022/01/26 20:40:36;;;;;;;41.38;14.88;;;;;;;;;;5032859;28;20087;-75
2022/01/26 20:43:02;;;;;;;42.67;15.82;;;;;;;;;;5035994;28;20083;-73
2022/01/26 20:45:30;;;;;;;37.08;13.38;;;;;;;;;;5058117;28;20040;-74
2022/01/26 20:47:57;;;;;;;42.25;16.75;;;;;;;;;;5057223;28;20053;-75
2022/01/26 20:50:24;;;;;;;44.72;17.27;;;;;;;;;;5058836;28;20045;-74
2022/01/26 20:52:50;;;;;;;46.67;16.98;;;;;;;;;;5058254;28;20056;-74
2022/01/26 20:55:17;;;;;;;49.40;17.40;;;;;;;;;;5039904;28;20408;-74
2022/01/26 20:57:43;;;;;;;54.33;18.48;;;;;;;;;;5039777;28;20051;-75
2022/01/26 21:00:10;;;;;;;42.97;17.50;;;;;;;;;;5056945;28;20480;-75
2022/01/26 21:02:36;;;;;;;61.15;19.52;;;;;;;;;;5041085;28;20461;-74
2022/01/26 21:05:03;;;;;;;51.13;17.90;;;;;;;;;;5041672;28;20041;-75
2022/01/26 21:07:29;;;;;;;50.65;18.35;;;;;;;;;;5056385;28;20137;-74
2022/01/26 21:09:55;;;;;;;54.40;19.23;;;;;;;;;;5057990;28;20041;-73
2022/01/26 21:12:21;;;;;;;53.67;18.08;;;;;;;;;;5041302;28;20041;-76
2022/01/26 21:14:47;;;;;;;47.20;18.27;;;;;;;;;;5056357;28;20048;-73
2022/01/26 21:17:14;;;;;;;50.00;18.33;;;;;;;;;;5058274;28;20106;-74
2022/01/26 21:19:40;;;;;;;45.25;16.83;;;;;;;;;;5057206;28;20097;-76
2022/01/26 21:22:06;;;;;;;51.15;17.27;;;;;;;;;;5056681;28;20051;-73
2022/01/26 21:24:32;;;;;;;51.92;18.55;;;;;;;;;;5058298;28;20037;-75
2022/01/26 21:26:58;;;;;;;51.50;18.63;;;;;;;;;;5056865;28;20080;-73
2022/01/26 21:29:24;;;;;;;54.00;19.55;;;;;;;;;;5037979;28;20528;-74